Accueil
METAR-TAF:

METAR-TAF

Aéroports :

Aéroport de Guernesey

Guernesey,

latitude: 49-26N, longitude: 002-36W, altitude: 102 m

Observation

Le bulletin a été fait il y a 30 minutes, à 11:50 UTC
Vent 5 kt de nord-ouest, variant entre ouest/nord-ouest et nord
Température 19°C
Humidité 64%
Pression 1019 hPa
Visibilité 10 km ou plus
Quelques nuages à une hauteur de 2800 ft

METAR: EGJB 181150Z 32005KT 290V360 9999 FEW028 19/12 Q1019

Heure: 13:20 (12:20 UTC)

Prévision

Le bulletin a été fait il y a 1 heure et 25 minutes, à 10:55 UTC
Prévision valable du 18 à 12 UTC au 18 à 21 UTC
Vent 7 kt de nord
Visibilité 10 km ou plus
Quelques nuages à une hauteur de 2500 ft

TAF: EGJB 181055Z 1812/1821 36007KT 9999 FEW025

Observations et prévisions météorologiques de plus de 4000 aéroports (messages METAR et TAF).

Les stations disponibles sont représentées par des disques jaunes et rouges sur la carte.

Passer la souris dessus pour voir le nom de la station.

Cliquer dessus pour voir les observations et prévisions météorologiques.

Pour changer de carte: cliquez sur les boutons verts avec une croix noire pour zoomer, sur le bouton vert avec un tiret pour effectuer un zoom arrière, ou sur les flèches vertes pour les cartes adjacentes.


METAR-TAF: